CheckWX is a tool to help pilots better visualize weather data.  It is not intended as a substitute for an official pre-flight weather briefing.

06:45:56 UTC

KCLK METAR
Clinton Regional Airport
Clinton, Oklahoma, USA
Current

31 mins ago

KCLK 180615Z AUTO 00000KT 10SM CLR 02/M02 A3003 RMK AO2
Observed
Nov-18 @ 06:15 UTC
Visibility
10 SM
Flight Rules
VFR
Cloud Levels
  • Clear skies
Temperature
C / 36°F
Dewpoint
-2°C / 28°F
Humidity
75%
Altimeter
30.03" Hg
Pressure
1016.92 hPa
Previous

51 mins ago

KCLK 180555Z AUTO 00000KT 10SM CLR 02/M02 A3004 RMK AO2
Observed
Nov-18 @ 05:55 UTC
Visibility
10 SM
Flight Rules
VFR
Cloud Levels
  • Clear skies
Temperature
C / 36°F
Dewpoint
-2°C / 28°F
Humidity
75%
Altimeter
30.04" Hg
Pressure
1017.32 hPa
Previous

1 hour ago

KCLK 180535Z AUTO 00000KT 10SM CLR 02/M02 A3005 RMK AO2
Observed
Nov-18 @ 05:35 UTC
Visibility
10 SM
Flight Rules
VFR
Cloud Levels
  • Clear skies
Temperature
C / 36°F
Dewpoint
-2°C / 28°F
Humidity
75%
Altimeter
30.05" Hg
Pressure
1017.62 hPa